sensor_id;sensor_type;location;lat;lon;timestamp;pressure;altitude;pressure_sealevel;temperature;humidity
60087;BME280;45960;53.630;55.972;2023-06-10T00:00:45;100275.22;;;13.18;57.26
60087;BME280;45960;53.630;55.972;2023-06-10T00:01:46;100275.00;;;13.21;57.19
60087;BME280;45960;53.630;55.972;2023-06-10T00:02:51;100281.09;;;13.24;57.30
60087;BME280;45960;53.630;55.972;2023-06-10T00:03:55;100275.63;;;13.25;57.21
60087;BME280;45960;53.630;55.972;2023-06-10T00:04:56;100285.06;;;13.31;57.22
60087;BME280;45960;53.630;55.972;2023-06-10T00:05:57;100283.84;;;13.35;57.16
60087;BME280;45960;53.630;55.972;2023-06-10T00:07:03;100284.34;;;13.40;57.19
60087;BME280;45960;53.630;55.972;2023-06-10T00:08:05;100175.09;;;12.71;56.74
60087;BME280;45960;53.630;55.972;2023-06-10T00:09:11;100285.59;;;13.47;56.77
60087;BME280;45960;53.630;55.972;2023-06-10T00:10:15;100281.94;;;13.48;56.90
60087;BME280;45960;53.630;55.972;2023-06-10T00:11:16;100250.91;;;13.33;56.91
60087;BME280;45960;53.630;55.972;2023-06-10T00:12:18;100277.19;;;13.52;56.79
60087;BME280;45960;53.630;55.972;2023-06-10T00:13:20;100274.75;;;13.49;56.72
60087;BME280;45960;53.630;55.972;2023-06-10T00:14:21;100271.81;;;13.52;56.57
60087;BME280;45960;53.630;55.972;2023-06-10T00:15:25;100278.03;;;13.52;56.65
60087;BME280;45960;53.630;55.972;2023-06-10T00:16:27;100272.91;;;13.49;56.84
60087;BME280;45960;53.630;55.972;2023-06-10T00:17:29;100277.41;;;13.49;56.86
60087;BME280;45960;53.630;55.972;2023-06-10T00:18:30;100272.06;;;13.49;56.84
60087;BME280;45960;53.630;55.972;2023-06-10T00:19:38;100227.19;;;13.15;56.67
60087;BME280;45960;53.630;55.972;2023-06-10T00:20:46;100280.09;;;13.49;56.73
60087;BME280;45960;53.630;55.972;2023-06-10T00:21:51;100276.56;;;13.48;56.46
60087;BME280;45960;53.630;55.972;2023-06-10T00:22:53;100283.63;;;13.49;56.60
60087;BME280;45960;53.630;55.972;2023-06-10T00:23:55;100278.28;;;13.49;56.57
60087;BME280;45960;53.630;55.972;2023-06-10T00:25:01;100281.69;;;13.51;56.57
60087;BME280;45960;53.630;55.972;2023-06-10T00:26:05;100276.34;;;13.51;56.56
60087;BME280;45960;53.630;55.972;2023-06-10T00:27:07;100269.03;;;13.53;56.70
60087;BME280;45960;53.630;55.972;2023-06-10T00:28:09;100269.97;;;13.52;56.58
60087;BME280;45960;53.630;55.972;2023-06-10T00:29:10;100265.34;;;13.54;56.77
60087;BME280;45960;53.630;55.972;2023-06-10T00:30:11;100265.34;;;13.54;56.69
60087;BME280;45960;53.630;55.972;2023-06-10T00:31:13;100267.06;;;13.55;56.70
60087;BME280;45960;53.630;55.972;2023-06-10T00:32:15;100268.78;;;13.56;56.60
60087;BME280;45960;53.630;55.972;2023-06-10T00:33:16;100268.78;;;13.56;56.66
60087;BME280;45960;53.630;55.972;2023-06-10T00:34:18;100269.38;;;13.60;56.48
60087;BME280;45960;53.630;55.972;2023-06-10T00:35:21;100270.25;;;13.60;56.59
60087;BME280;45960;53.630;55.972;2023-06-10T00:36:23;100273.66;;;13.62;56.36
60087;BME280;45960;53.630;55.972;2023-06-10T00:37:29;100275.38;;;13.63;56.44
60087;BME280;45960;53.630;55.972;2023-06-10T00:38:32;100277.09;;;13.64;56.32
60087;BME280;45960;53.630;55.972;2023-06-10T00:39:35;100274.41;;;13.64;56.42
60087;BME280;45960;53.630;55.972;2023-06-10T00:40:49;100279.66;;;13.66;56.31
60087;BME280;45960;53.630;55.972;2023-06-10T00:41:51;100281.22;;;13.69;56.33
60087;BME280;45960;53.630;55.972;2023-06-10T00:42:53;100286.50;;;13.70;56.19
60087;BME280;45960;53.630;55.972;2023-06-10T00:43:56;100287.34;;;13.71;56.33
60087;BME280;45960;53.630;55.972;2023-06-10T00:44:57;100282.72;;;13.73;56.46
60087;BME280;45960;53.630;55.972;2023-06-10T00:45:59;100288.09;;;13.73;56.32
60087;BME280;45960;53.630;55.972;2023-06-10T00:47:01;100284.41;;;13.74;56.12
60087;BME280;45960;53.630;55.972;2023-06-10T00:48:03;100287.97;;;13.74;56.31
60087;BME280;45960;53.630;55.972;2023-06-10T00:49:05;100255.22;;;13.58;56.26
60087;BME280;45960;53.630;55.972;2023-06-10T00:50:08;100281.72;;;13.74;56.14
60087;BME280;45960;53.630;55.972;2023-06-10T00:51:09;100285.41;;;13.73;56.14
60087;BME280;45960;53.630;55.972;2023-06-10T00:52:11;100283.44;;;13.75;56.33
60087;BME280;45960;53.630;55.972;2023-06-10T00:53:15;100285.16;;;13.76;56.04
60087;BME280;45960;53.630;55.972;2023-06-10T00:54:17;100284.91;;;13.79;55.90
60087;BME280;45960;53.630;55.972;2023-06-10T00:55:18;100288.34;;;13.81;56.05
60087;BME280;45960;53.630;55.972;2023-06-10T00:56:20;100290.78;;;13.84;55.95
60087;BME280;45960;53.630;55.972;2023-06-10T00:57:22;100285.88;;;13.89;55.78
60087;BME280;45960;53.630;55.972;2023-06-10T00:58:26;100232.91;;;13.57;55.82
60087;BME280;45960;53.630;55.972;2023-06-10T00:59:29;100157.56;;;13.14;55.65
60087;BME280;45960;53.630;55.972;2023-06-10T01:00:33;100297.38;;;14.02;55.43
60087;BME280;45960;53.630;55.972;2023-06-10T01:01:42;100288.72;;;14.10;55.17
60087;BME280;45960;53.630;55.972;2023-06-10T01:02:45;100291.66;;;14.18;55.02
60087;BME280;45960;53.630;55.972;2023-06-10T01:03:47;100293.47;;;14.29;54.92
60087;BME280;45960;53.630;55.972;2023-06-10T01:04:52;100291.72;;;14.39;54.61
60087;BME280;45960;53.630;55.972;2023-06-10T01:06:41;100293.44;;;14.51;54.14
60087;BME280;45960;53.630;55.972;2023-06-10T01:07:27;100191.91;;;14.00;53.85
60087;BME280;45960;53.630;55.972;2023-06-10T01:11:29;100282.88;;;14.82;53.48
60087;BME280;45960;53.630;55.972;2023-06-10T01:14:13;100276.94;;;14.99;53.15
60087;BME280;45960;53.630;55.972;2023-06-10T01:15:16;100287.34;;;15.04;52.89
60087;BME280;45960;53.630;55.972;2023-06-10T01:16:22;100287.06;;;15.07;53.00
60087;BME280;45960;53.630;55.972;2023-06-10T01:17:24;100255.00;;;14.83;53.04
60087;BME280;45960;53.630;55.972;2023-06-10T01:18:31;100288.44;;;15.02;52.98
60087;BME280;45960;53.630;55.972;2023-06-10T01:19:34;100275.03;;;14.90;53.13
60087;BME280;45960;53.630;55.972;2023-06-10T01:20:38;100291.63;;;14.95;53.47
60087;BME280;45960;53.630;55.972;2023-06-10T01:21:45;100292.13;;;14.89;53.50
60087;BME280;45960;53.630;55.972;2023-06-10T01:22:50;100292.41;;;14.86;53.57
60087;BME280;45960;53.630;55.972;2023-06-10T01:23:54;100291.66;;;14.84;53.60
60087;BME280;45960;53.630;55.972;2023-06-10T01:24:58;100289.22;;;14.81;53.81
60087;BME280;45960;53.630;55.972;2023-06-10T01:26:02;100164.78;;;14.03;53.95
60087;BME280;45960;53.630;55.972;2023-06-10T01:27:11;100239.31;;;14.45;53.95
60087;BME280;45960;53.630;55.972;2023-06-10T01:29:31;100296.84;;;14.76;53.77
60087;BME280;45960;53.630;55.972;2023-06-10T01:32:08;100245.56;;;14.45;53.66
60087;BME280;45960;53.630;55.972;2023-06-10T01:33:13;100292.91;;;14.80;53.64
60087;BME280;45960;53.630;55.972;2023-06-10T01:34:17;100290.81;;;14.84;53.63
60087;BME280;45960;53.630;55.972;2023-06-10T01:35:22;100292.97;;;14.90;53.65
60087;BME280;45960;53.630;55.972;2023-06-10T01:36:26;100297.00;;;14.95;53.18
60087;BME280;45960;53.630;55.972;2023-06-10T01:37:29;100295.03;;;14.97;53.17
60087;BME280;45960;53.630;55.972;2023-06-10T01:38:35;100286.75;;;14.89;52.87
60087;BME280;45960;53.630;55.972;2023-06-10T01:39:39;100297.94;;;15.06;53.02
60087;BME280;45960;53.630;55.972;2023-06-10T01:40:41;100297.69;;;15.09;52.69
60087;BME280;45960;53.630;55.972;2023-06-10T01:41:43;100301.13;;;15.11;52.39
60087;BME280;45960;53.630;55.972;2023-06-10T01:42:45;100295.75;;;15.11;52.42
60087;BME280;45960;53.630;55.972;2023-06-10T01:43:48;100309.66;;;15.16;52.35
60087;BME280;45960;53.630;55.972;2023-06-10T01:44:49;100302.31;;;15.18;52.22
60087;BME280;45960;53.630;55.972;2023-06-10T01:45:50;100303.03;;;15.20;52.12
60087;BME280;45960;53.630;55.972;2023-06-10T01:46:51;100309.16;;;15.22;52.13
60087;BME280;45960;53.630;55.972;2023-06-10T01:47:52;100306.91;;;15.27;52.01
60087;BME280;45960;53.630;55.972;2023-06-10T01:48:54;100313.75;;;15.31;51.93
60087;BME280;45960;53.630;55.972;2023-06-10T01:49:55;100312.38;;;15.37;51.69
60087;BME280;45960;53.630;55.972;2023-06-10T01:50:57;100275.25;;;15.19;51.72
60087;BME280;45960;53.630;55.972;2023-06-10T01:51:58;100311.00;;;15.42;51.50
60087;BME280;45960;53.630;55.972;2023-06-10T01:53:00;100267.44;;;15.16;51.28
60087;BME280;45960;53.630;55.972;2023-06-10T01:54:01;100312.72;;;15.43;51.45
60087;BME280;45960;53.630;55.972;2023-06-10T01:55:03;100312.19;;;15.50;51.25
60087;BME280;45960;53.630;55.972;2023-06-10T01:56:04;100317.03;;;15.56;51.14
60087;BME280;45960;53.630;55.972;2023-06-10T01:57:06;100304.63;;;15.64;51.02
60087;BME280;45960;53.630;55.972;2023-06-10T01:58:07;100316.94;;;15.78;50.69
60087;BME280;45960;53.630;55.972;2023-06-10T01:59:08;100312.75;;;15.85;50.39
60087;BME280;45960;53.630;55.972;2023-06-10T02:00:10;100319.75;;;15.98;50.28
60087;BME280;45960;53.630;55.972;2023-06-10T02:01:17;100314.00;;;16.12;50.14
60087;BME280;45960;53.630;55.972;2023-06-10T02:02:18;100307.25;;;16.27;49.81
60087;BME280;45960;53.630;55.972;2023-06-10T02:03:19;100315.66;;;16.44;49.51
60087;BME280;45960;53.630;55.972;2023-06-10T02:04:20;100320.44;;;16.61;49.32
60087;BME280;45960;53.630;55.972;2023-06-10T02:05:21;100317.34;;;16.75;48.80
60087;BME280;45960;53.630;55.972;2023-06-10T02:06:23;100315.81;;;16.83;48.43
60087;BME280;45960;53.630;55.972;2023-06-10T02:07:24;100318.22;;;16.86;48.28
60087;BME280;45960;53.630;55.972;2023-06-10T02:08:25;100316.25;;;16.88;48.18
60087;BME280;45960;53.630;55.972;2023-06-10T02:09:28;100316.69;;;16.93;48.15
60087;BME280;45960;53.630;55.972;2023-06-10T02:10:32;100323.94;;;17.02;48.01
60087;BME280;45960;53.630;55.972;2023-06-10T02:11:33;100258.53;;;16.69;47.89
60087;BME280;45960;53.630;55.972;2023-06-10T02:12:34;100333.31;;;17.08;47.87
60087;BME280;45960;53.630;55.972;2023-06-10T02:13:38;100326.34;;;17.05;47.59
60087;BME280;45960;53.630;55.972;2023-06-10T02:14:39;100320.78;;;16.97;47.52
60087;BME280;45960;53.630;55.972;2023-06-10T02:15:40;100325.06;;;16.90;47.53
60087;BME280;45960;53.630;55.972;2023-06-10T02:16:41;100332.75;;;16.94;47.65
60087;BME280;45960;53.630;55.972;2023-06-10T02:17:46;100324.22;;;16.99;47.62
60087;BME280;45960;53.630;55.972;2023-06-10T02:18:47;100317.97;;;17.08;47.36
60087;BME280;45960;53.630;55.972;2023-06-10T02:19:49;100320.97;;;17.15;47.33
60087;BME280;45960;53.630;55.972;2023-06-10T02:20:53;100327.22;;;17.15;47.32
60087;BME280;45960;53.630;55.972;2023-06-10T02:21:54;100324.22;;;17.18;47.34
60087;BME280;45960;53.630;55.972;2023-06-10T02:22:55;100319.13;;;17.15;47.50
60087;BME280;45960;53.630;55.972;2023-06-10T02:23:56;100322.09;;;17.12;47.33
60087;BME280;45960;53.630;55.972;2023-06-10T02:25:05;100325.09;;;17.09;47.39
60087;BME280;45960;53.630;55.972;2023-06-10T02:26:06;100325.66;;;17.03;47.52
60087;BME280;45960;53.630;55.972;2023-06-10T02:27:07;100323.06;;;17.02;47.67
60087;BME280;45960;53.630;55.972;2023-06-10T02:28:09;100324.22;;;16.99;47.67
60087;BME280;45960;53.630;55.972;2023-06-10T02:29:10;100324.22;;;16.99;47.97
60087;BME280;45960;53.630;55.972;2023-06-10T02:30:12;100323.94;;;17.02;48.37
60087;BME280;45960;53.630;55.972;2023-06-10T02:31:14;100329.63;;;17.09;48.61
60087;BME280;45960;53.630;55.972;2023-06-10T02:32:19;100323.66;;;17.15;48.53
60087;BME280;45960;53.630;55.972;2023-06-10T02:33:20;100330.34;;;17.20;48.34
60087;BME280;45960;53.630;55.972;2023-06-10T02:34:22;100325.78;;;17.21;48.33
60087;BME280;45960;53.630;55.972;2023-06-10T02:35:23;100319.66;;;17.19;48.44
60087;BME280;45960;53.630;55.972;2023-06-10T02:36:26;100317.41;;;17.14;48.57
60087;BME280;45960;53.630;55.972;2023-06-10T02:37:28;100325.91;;;17.19;48.36
60087;BME280;45960;53.630;55.972;2023-06-10T02:38:31;100329.91;;;17.25;48.45
60087;BME280;45960;53.630;55.972;2023-06-10T02:39:33;100324.81;;;17.32;48.20
60087;BME280;45960;53.630;55.972;2023-06-10T02:40:41;100326.22;;;17.36;47.98
60087;BME280;45960;53.630;55.972;2023-06-10T02:41:44;100323.94;;;17.41;47.72
60087;BME280;45960;53.630;55.972;2023-06-10T02:42:45;100330.78;;;17.45;47.66
60087;BME280;45960;53.630;55.972;2023-06-10T02:43:46;100333.19;;;17.48;47.40
60087;BME280;45960;53.630;55.972;2023-06-10T02:44:47;100325.94;;;17.49;47.32
60087;BME280;45960;53.630;55.972;2023-06-10T02:45:55;100322.25;;;17.40;46.95
60087;BME280;45960;53.630;55.972;2023-06-10T02:46:56;100332.03;;;17.41;47.02
60087;BME280;45960;53.630;55.972;2023-06-10T02:47:57;100326.81;;;17.39;47.06
60087;BME280;45960;53.630;55.972;2023-06-10T02:48:58;100331.31;;;17.39;46.97
60087;BME280;45960;53.630;55.972;2023-06-10T02:50:01;100329.50;;;17.39;47.03
60087;BME280;45960;53.630;55.972;2023-06-10T02:51:05;100327.34;;;17.43;46.94
60087;BME280;45960;53.630;55.972;2023-06-10T02:52:15;100330.47;;;17.48;46.94
60087;BME280;45960;53.630;55.972;2023-06-10T02:53:16;100322.53;;;17.56;46.81
60087;BME280;45960;53.630;55.972;2023-06-10T02:54:23;100326.75;;;17.68;46.75
60087;BME280;45960;53.630;55.972;2023-06-10T02:55:26;100336.13;;;17.84;46.51
60087;BME280;45960;53.630;55.972;2023-06-10T02:56:35;100336.97;;;17.94;46.20
60087;BME280;45960;53.630;55.972;2023-06-10T02:57:39;100331.38;;;18.05;45.82
60087;BME280;45960;53.630;55.972;2023-06-10T02:58:41;100331.38;;;18.05;45.73
60087;BME280;45960;53.630;55.972;2023-06-10T02:59:44;100333.78;;;18.08;45.71
60087;BME280;45960;53.630;55.972;2023-06-10T03:00:45;100336.91;;;18.14;45.84
60087;BME280;45960;53.630;55.972;2023-06-10T03:01:47;100334.94;;;18.16;45.70
60087;BME280;45960;53.630;55.972;2023-06-10T03:02:49;100338.88;;;18.21;45.77
60087;BME280;45960;53.630;55.972;2023-06-10T03:03:52;100329.88;;;18.30;45.67
60087;BME280;45960;53.630;55.972;2023-06-10T03:04:56;100330.53;;;18.42;45.52
60087;BME280;45960;53.630;55.972;2023-06-10T03:05:59;100319.69;;;18.52;45.25
60087;BME280;45960;53.630;55.972;2023-06-10T03:07:01;100334.16;;;18.61;45.14
60087;BME280;45960;53.630;55.972;2023-06-10T03:08:07;100326.75;;;18.63;44.99
60087;BME280;45960;53.630;55.972;2023-06-10T03:09:11;100332.69;;;18.66;45.17
60087;BME280;45960;53.630;55.972;2023-06-10T03:10:15;100326.75;;;18.63;45.00
60087;BME280;45960;53.630;55.972;2023-06-10T03:11:16;100334.88;;;18.63;45.09
60087;BME280;45960;53.630;55.972;2023-06-10T03:12:17;100332.16;;;18.63;44.99
60087;BME280;45960;53.630;55.972;2023-06-10T03:13:23;100331.00;;;18.65;44.71
60087;BME280;45960;53.630;55.972;2023-06-10T03:14:25;100331.97;;;18.74;44.67
60087;BME280;45960;53.630;55.972;2023-06-10T03:15:26;100335.47;;;18.84;44.66
60087;BME280;45960;53.630;55.972;2023-06-10T03:16:30;100328.84;;;18.96;44.49
60087;BME280;45960;53.630;55.972;2023-06-10T03:17:32;100331.34;;;19.08;44.21
60087;BME280;45960;53.630;55.972;2023-06-10T03:18:33;100335.50;;;19.20;44.26
60087;BME280;45960;53.630;55.972;2023-06-10T03:19:35;100333.59;;;19.30;44.18
60087;BME280;45960;53.630;55.972;2023-06-10T03:20:42;100329.94;;;19.39;43.94
60087;BME280;45960;53.630;55.972;2023-06-10T03:21:49;100332.31;;;19.42;43.54
60087;BME280;45960;53.630;55.972;2023-06-10T03:22:56;100325.88;;;19.43;43.99
60087;BME280;45960;53.630;55.972;2023-06-10T03:23:57;100330.69;;;19.50;43.79
60087;BME280;45960;53.630;55.972;2023-06-10T03:24:58;100331.56;;;19.50;43.29
60087;BME280;45960;53.630;55.972;2023-06-10T03:26:02;100330.91;;;19.56;43.22
60087;BME280;45960;53.630;55.972;2023-06-10T03:27:06;100336.66;;;19.71;43.22
60087;BME280;45960;53.630;55.972;2023-06-10T03:28:09;100336.38;;;19.82;42.76
60087;BME280;45960;53.630;55.972;2023-06-10T03:29:11;100338.13;;;19.83;42.55
60087;BME280;45960;53.630;55.972;2023-06-10T03:30:13;100309.28;;;19.82;42.51
60087;BME280;45960;53.630;55.972;2023-06-10T03:31:15;100333.84;;;20.07;42.31
60087;BME280;45960;53.630;55.972;2023-06-10T03:32:17;100334.16;;;20.04;41.95
60087;BME280;45960;53.630;55.972;2023-06-10T03:33:20;100334.50;;;20.01;41.98
60087;BME280;45960;53.630;55.972;2023-06-10T03:34:21;100332.16;;;20.06;42.09
60087;BME280;45960;53.630;55.972;2023-06-10T03:35:22;100329.81;;;20.11;42.08
60087;BME280;45960;53.630;55.972;2023-06-10T03:36:23;100332.69;;;20.09;42.02
60087;BME280;45960;53.630;55.972;2023-06-10T03:37:25;100285.19;;;19.79;41.95
60087;BME280;45960;53.630;55.972;2023-06-10T03:38:27;100333.19;;;20.13;42.05
60087;BME280;45960;53.630;55.972;2023-06-10T03:39:30;100335.44;;;20.18;42.03
60087;BME280;45960;53.630;55.972;2023-06-10T03:40:32;100345.31;;;20.27;42.20
60087;BME280;45960;53.630;55.972;2023-06-10T03:41:35;100333.81;;;20.33;42.03
60087;BME280;45960;53.630;55.972;2023-06-10T03:42:41;100333.00;;;20.41;42.35
60087;BME280;45960;53.630;55.972;2023-06-10T03:43:44;100341.88;;;20.51;42.12
60087;BME280;45960;53.630;55.972;2023-06-10T03:44:47;100333.47;;;20.62;41.99
60087;BME280;45960;53.630;55.972;2023-06-10T03:45:49;100331.81;;;20.77;41.81
60087;BME280;45960;53.630;55.972;2023-06-10T03:46:50;100325.44;;;20.87;41.44
60087;BME280;45960;53.630;55.972;2023-06-10T03:47:53;100325.25;;;20.96;41.47
60087;BME280;45960;53.630;55.972;2023-06-10T03:48:58;100323.25;;;21.07;41.29
60087;BME280;45960;53.630;55.972;2023-06-10T03:50:04;100308.50;;;21.09;41.28
60087;BME280;45960;53.630;55.972;2023-06-10T03:51:05;100320.38;;;21.16;40.92
60087;BME280;45960;53.630;55.972;2023-06-10T03:52:07;100316.97;;;21.14;41.12
60087;BME280;45960;53.630;55.972;2023-06-10T03:53:08;100304.75;;;21.10;41.31
60087;BME280;45960;53.630;55.972;2023-06-10T03:54:10;100307.81;;;21.15;41.33
60087;BME280;45960;53.630;55.972;2023-06-10T03:55:11;100310.88;;;21.20;41.28
60087;BME280;45960;53.630;55.972;2023-06-10T03:56:17;100312.56;;;21.21;41.13
60087;BME280;45960;53.630;55.972;2023-06-10T03:57:18;100317.66;;;21.24;41.00
60087;BME280;45960;53.630;55.972;2023-06-10T03:58:23;100285.38;;;21.05;40.92
60087;BME280;45960;53.630;55.972;2023-06-10T03:59:25;100318.00;;;21.21;40.92
60087;BME280;45960;53.630;55.972;2023-06-10T04:00:27;100324.28;;;21.22;40.91
60087;BME280;45960;53.630;55.972;2023-06-10T04:01:29;100324.78;;;21.26;40.91
60087;BME280;45960;53.630;55.972;2023-06-10T04:02:30;100316.66;;;21.34;40.74
60087;BME280;45960;53.630;55.972;2023-06-10T04:03:33;100308.88;;;21.39;40.54
60087;BME280;45960;53.630;55.972;2023-06-10T04:04:34;100321.47;;;21.40;40.26
60087;BME280;45960;53.630;55.972;2023-06-10T04:05:38;100322.66;;;21.37;40.07
60087;BME280;45960;53.630;55.972;2023-06-10T04:06:39;100314.13;;;21.32;40.22
60087;BME280;45960;53.630;55.972;2023-06-10T04:07:43;100318.38;;;21.35;40.21
60087;BME280;45960;53.630;55.972;2023-06-10T04:08:45;100309.56;;;21.41;40.37
60087;BME280;45960;53.630;55.972;2023-06-10T04:09:47;100294.59;;;21.37;40.24
60087;BME280;45960;53.630;55.972;2023-06-10T04:10:48;100306.84;;;21.57;39.99
60087;BME280;45960;53.630;55.972;2023-06-10T04:11:49;100316.69;;;21.66;39.90
60087;BME280;45960;53.630;55.972;2023-06-10T04:12:50;100317.38;;;21.60;39.62
60087;BME280;45960;53.630;55.972;2023-06-10T04:13:52;100316.69;;;21.50;39.88
60087;BME280;45960;53.630;55.972;2023-06-10T04:14:54;100319.75;;;21.39;39.76
60087;BME280;45960;53.630;55.972;2023-06-10T04:15:55;100316.34;;;21.29;40.16
60087;BME280;45960;53.630;55.972;2023-06-10T04:16:56;100313.91;;;21.26;40.05
60087;BME280;45960;53.630;55.972;2023-06-10T04:17:57;100316.97;;;21.22;40.25
60087;BME280;45960;53.630;55.972;2023-06-10T04:18:59;100311.53;;;21.14;40.42
60087;BME280;45960;53.630;55.972;2023-06-10T04:20:01;100318.34;;;21.10;40.56
60087;BME280;45960;53.630;55.972;2023-06-10T04:21:05;100321.72;;;21.04;40.63
60087;BME280;45960;53.630;55.972;2023-06-10T04:22:07;100320.69;;;20.97;40.84
60087;BME280;45960;53.630;55.972;2023-06-10T04:23:08;100323.69;;;20.86;41.14
60087;BME280;45960;53.630;55.972;2023-06-10T04:24:09;100323.34;;;20.81;41.56
60087;BME280;45960;53.630;55.972;2023-06-10T04:25:11;100328.13;;;20.78;41.49
60087;BME280;45960;53.630;55.972;2023-06-10T04:26:13;100322.00;;;20.76;41.63
60087;BME280;45960;53.630;55.972;2023-06-10T04:27:15;100326.72;;;20.74;41.63
60087;BME280;45960;53.630;55.972;2023-06-10T04:28:16;100325.72;;;20.75;41.75
60087;BME280;45960;53.630;55.972;2023-06-10T04:29:18;100318.94;;;20.79;41.63
60087;BME280;45960;53.630;55.972;2023-06-10T04:30:20;100327.78;;;20.82;41.55
60087;BME280;45960;53.630;55.972;2023-06-10T04:31:21;100327.78;;;20.82;41.77
60087;BME280;45960;53.630;55.972;2023-06-10T04:32:22;100320.00;;;20.87;42.11
60087;BME280;45960;53.630;55.972;2023-06-10T04:33:24;100326.09;;;20.97;42.13
60087;BME280;45960;53.630;55.972;2023-06-10T04:34:25;100326.81;;;21.07;41.94
60087;BME280;45960;53.630;55.972;2023-06-10T04:35:27;100323.78;;;21.18;41.79
60087;BME280;45960;53.630;55.972;2023-06-10T04:36:29;100322.06;;;21.34;41.45
60087;BME280;45960;53.630;55.972;2023-06-10T04:37:30;100324.16;;;21.48;41.52
60087;BME280;45960;53.630;55.972;2023-06-10T04:38:33;100321.78;;;21.53;40.88
60087;BME280;45960;53.630;55.972;2023-06-10T04:39:35;100320.09;;;21.60;40.83
60087;BME280;45960;53.630;55.972;2023-06-10T04:40:37;100322.13;;;21.66;40.48
60087;BME280;45960;53.630;55.972;2023-06-10T04:41:39;100318.38;;;21.67;40.35
60087;BME280;45960;53.630;55.972;2023-06-10T04:42:41;100317.72;;;21.57;40.30
60087;BME280;45960;53.630;55.972;2023-06-10T04:43:43;100318.41;;;21.51;40.30
60087;BME280;45960;53.630;55.972;2023-06-10T04:44:45;100323.84;;;21.51;40.31
60087;BME280;45960;53.630;55.972;2023-06-10T04:45:47;100316.69;;;21.50;40.51
60087;BME280;45960;53.630;55.972;2023-06-10T04:46:49;100326.38;;;21.53;40.45
60087;BME280;45960;53.630;55.972;2023-06-10T04:47:50;100321.44;;;21.56;40.64
60087;BME280;45960;53.630;55.972;2023-06-10T04:48:52;100316.69;;;21.58;41.22
60087;BME280;45960;53.630;55.972;2023-06-10T04:49:55;100321.97;;;21.60;41.76
60087;BME280;45960;53.630;55.972;2023-06-10T04:50:57;100318.41;;;21.59;42.03
60087;BME280;45960;53.630;55.972;2023-06-10T04:51:59;100321.13;;;21.59;42.32
60087;BME280;45960;53.630;55.972;2023-06-10T04:53:01;100322.81;;;21.60;42.79
60087;BME280;45960;53.630;55.972;2023-06-10T04:54:02;100320.59;;;21.64;42.64
60087;BME280;45960;53.630;55.972;2023-06-10T04:55:04;100318.72;;;21.64;42.24
60087;BME280;45960;53.630;55.972;2023-06-10T04:56:06;100320.78;;;21.62;41.91
60087;BME280;45960;53.630;55.972;2023-06-10T04:57:08;100316.34;;;21.61;42.10
60087;BME280;45960;53.630;55.972;2023-06-10T04:58:09;100319.06;;;21.61;42.14
60087;BME280;45960;53.630;55.972;2023-06-10T04:59:10;100322.97;;;21.67;41.81
60087;BME280;45960;53.630;55.972;2023-06-10T05:00:12;100322.47;;;21.72;41.70
60087;BME280;45960;53.630;55.972;2023-06-10T05:01:13;100330.28;;;21.75;41.64
60087;BME280;45960;53.630;55.972;2023-06-10T05:02:14;100323.81;;;21.76;41.70
60087;BME280;45960;53.630;55.972;2023-06-10T05:03:15;100327.22;;;21.70;41.79
60087;BME280;45960;53.630;55.972;2023-06-10T05:04:16;100328.41;;;21.67;41.65
60087;BME280;45960;53.630;55.972;2023-06-10T05:05:18;100324.16;;;21.64;41.68
60087;BME280;45960;53.630;55.972;2023-06-10T05:06:19;100331.81;;;21.69;41.49
60087;BME280;45960;53.630;55.972;2023-06-10T05:07:20;100323.81;;;21.67;41.53
60087;BME280;45960;53.630;55.972;2023-06-10T05:08:21;100330.63;;;21.72;41.38
60087;BME280;45960;53.630;55.972;2023-06-10T05:09:22;100326.19;;;21.79;41.77
60087;BME280;45960;53.630;55.972;2023-06-10T05:10:23;100319.72;;;21.88;41.69
60087;BME280;45960;53.630;55.972;2023-06-10T05:11:24;100324.47;;;21.94;41.54
60087;BME280;45960;53.630;55.972;2023-06-10T05:12:26;100316.31;;;21.86;41.17
60087;BME280;45960;53.630;55.972;2023-06-10T05:13:27;100319.72;;;21.88;41.14
60087;BME280;45960;53.630;55.972;2023-06-10T05:14:28;100316.31;;;21.86;41.36
60087;BME280;45960;53.630;55.972;2023-06-10T05:15:29;100322.47;;;21.80;41.36
60087;BME280;45960;53.630;55.972;2023-06-10T05:16:32;100321.06;;;21.84;41.48
60087;BME280;45960;53.630;55.972;2023-06-10T05:17:33;100310.75;;;21.79;41.35
60087;BME280;45960;53.630;55.972;2023-06-10T05:18:35;100315.31;;;21.79;41.40
60087;BME280;45960;53.630;55.972;2023-06-10T05:19:37;100319.41;;;21.75;41.59
60087;BME280;45960;53.630;55.972;2023-06-10T05:20:39;100310.91;;;21.70;41.63
60087;BME280;45960;53.630;55.972;2023-06-10T05:21:40;100319.59;;;21.65;41.68
60087;BME280;45960;53.630;55.972;2023-06-10T05:22:41;100307.19;;;21.54;41.70
60087;BME280;45960;53.630;55.972;2023-06-10T05:23:42;100323.16;;;21.57;41.60
60087;BME280;45960;53.630;55.972;2023-06-10T05:24:46;100318.06;;;21.54;41.59
60087;BME280;45960;53.630;55.972;2023-06-10T05:25:47;100325.34;;;21.62;41.98
60087;BME280;45960;53.630;55.972;2023-06-10T05:26:49;100317.53;;;21.67;41.70
60087;BME280;45960;53.630;55.972;2023-06-10T05:27:50;100323.16;;;21.65;41.62
60087;BME280;45960;53.630;55.972;2023-06-10T05:28:51;100335.03;;;21.64;41.60
60087;BME280;45960;53.630;55.972;2023-06-10T05:29:53;100324.50;;;21.61;41.50
60087;BME280;45960;53.630;55.972;2023-06-10T05:30:54;100326.03;;;21.56;41.99